KFHRKBLI

Guest
Details From KFHR - Friday Harbor
To KBLI - Bellingham Intl
Flight Number -
Tags Generated
Created
Modified
Stats Distance 25 nm / 47 km
Max Altitude 0 ft / 0 m
Waypoints 2
Social Downloads 0
Likes 0
Share VATSIM

Download

Looking for another format? Having issues loading an existing format? Contact us
Advertisement - Login to hide

Notes

Generated

Route

KFHR KBLI

ID Type Via Altitude Latitude Longitude Leg Dist Tot Dist Heading (true) Name
O KFHR APT - 0 ft / 0 m 48.52662˚ -123.02473˚ - 0 nm - -
O KBLI APT - 0 ft / 0 m 48.80188˚ -122.53756˚ 25 nm 25 nm 49° / 50° -

Altitude Profile

Advertisement - Login to hide

KFHR

Details ICAO KFHR (FRD)
Name FRIDAY HARBOR
Region United States
Timezone America/Los_Angeles (UTC-8.0)
Stats Elevation 113 ft / 34 m (AMSL)
Location 48.521966° -123.024368°
Runways 1
Magnetic Variation 16.073° E

METAR

KFHR 130653Z AUTO 00000KT 10SM FEW120 07/04 A3045 RMK AO2 SLP310 T00720039 $

Decode

TAF

Not found

Departure Runways

ID Width Length Bearing (true) Bearing (mag) Surface Threshold Offset Overrun Length
16 75 ft / 23 m 3,402 ft / 1,037 m 177.06° 160.99° Asphalt 0 ft / 0 m 0 ft / 0 m
34 75 ft / 23 m 3,402 ft / 1,037 m 357.06° 340.99° Asphalt 0 ft / 0 m 0 ft / 0 m

KBLI

Details ICAO KBLI (BLI)
Name BELLINGHAM INTL
Region United States
Timezone America/Los_Angeles (UTC-8.0)
Stats Elevation 170 ft / 52 m (AMSL)
Location 48.792615° -122.537535°
Runways 1
Magnetic Variation 16.053° E

METAR

KBLI 130653Z AUTO 00000KT 10SM SCT110 03/02 A3045 RMK AO2 SLP319 T00330022

Decode

TAF

TAF KBLI 130520Z 1306/1406 00000KT P6SM BKN200 FM130800 00000KT 1SM BR SCT001 FM131500 VRB03KT P6SM SKC

Decode

Destination Runways

ID Width Length Bearing (true) Bearing (mag) Surface Threshold Offset Overrun Length
16 151 ft / 46 m 6,755 ft / 2,059 m 179.88° 163.83° Asphalt 0 ft / 0 m 0 ft / 0 m
34 151 ft / 46 m 6,755 ft / 2,059 m 359.88° 343.83° Asphalt 0 ft / 0 m 0 ft / 0 m

Approach Navaids

Runway Type Ident Frequency Range Bearing (true) Bearing (mag) Slope Elevation
16 Localiser IBLI 108.50 MHz 18 nm / 33 km 179.83° 163.78° - 152 ft / 46 m (AMSL)
16 Glidescope IBLI 108.50 MHz 10 nm / 19 km 179.88° 163.82° 3.00° 154 ft / 47 m (AMSL)

Popular Alternatives